Time;durP1;ratioP1;P1;durP2;ratioP2;P2;SDS_P1;SDS_P2;PMS_P1;PMS_P2;Temp;Humidity;BMP_temperature;BMP_pressure;BME280_temperature;BME280_humidity;BME280_pressure;Samples;Min_cycle;Max_cycle;Signal;HPM_P1;HPM_P2
2022/09/14 00:01:56;;;;;;;7.05;2.10;;;23.40;99.90;;;;;;5053629;28;20048;-62
2022/09/14 00:04:22;;;;;;;5.57;1.90;;;23.40;99.90;;;;;;5053594;28;20418;-62
2022/09/14 00:06:48;;;;;;;5.95;1.92;;;23.20;99.90;;;;;;5053859;28;20029;-61
2022/09/14 00:09:17;;;;;;;6.38;1.90;;;23.10;99.90;;;;;;5053612;28;20175;-62
2022/09/14 00:11:43;;;;;;;7.38;2.38;;;23.20;99.90;;;;;;5053548;28;20032;-61
2022/09/14 00:14:09;;;;;;;6.45;2.60;;;23.00;99.90;;;;;;5053450;28;20028;-62
2022/09/14 00:16:37;;;;;;;7.65;2.20;;;22.30;99.90;;;;;;5053895;28;20044;-62
2022/09/14 00:19:14;;;;;;;7.82;2.28;;;22.60;99.90;;;;;;5053102;28;20025;-61
2022/09/14 00:21:41;;;;;;;9.98;3.00;;;22.70;99.90;;;;;;5052819;28;20049;-62
2022/09/14 00:24:08;;;;;;;8.27;2.38;;;23.10;99.90;;;;;;5053723;28;20025;-61
2022/09/14 00:26:34;;;;;;;4.20;1.77;;;23.20;99.90;;;;;;5053380;28;20049;-61
2022/09/14 00:29:03;;;;;;;5.72;2.00;;;23.00;99.90;;;;;;5053396;28;20083;-61
2022/09/14 00:31:30;;;;;;;7.25;2.25;;;23.00;99.90;;;;;;5053273;28;20024;-61
2022/09/14 00:33:56;;;;;;;7.00;2.30;;;23.10;99.90;;;;;;5053218;28;20039;-62
2022/09/14 00:36:25;;;;;;;8.48;2.20;;;23.10;99.90;;;;;;5053079;28;20021;-61
2022/09/14 00:38:51;;;;;;;7.60;2.30;;;23.10;99.90;;;;;;5053516;28;20021;-62
2022/09/14 00:41:21;;;;;;;8.43;1.88;;;23.10;99.90;;;;;;5052908;28;20032;-61
2022/09/14 00:44:05;;;;;;;5.95;2.13;;;23.10;99.90;;;;;;5053069;28;20028;-61
2022/09/14 00:46:45;;;;;;;9.02;2.30;;;22.90;99.90;;;;;;5052327;28;20078;-61
2022/09/14 00:49:12;;;;;;;6.47;1.90;;;23.00;99.90;;;;;;5052835;28;20021;-61
2022/09/14 00:51:47;;;;;;;6.18;2.00;;;23.00;99.90;;;;;;5052924;28;20037;-61
2022/09/14 00:54:13;;;;;;;8.80;2.10;;;21.80;99.90;;;;;;5052672;28;20079;-61
2022/09/14 00:56:39;;;;;;;7.60;2.40;;;21.40;99.90;;;;;;5053013;28;20028;-61
2022/09/14 00:59:15;;;;;;;9.50;2.22;;;22.00;99.90;;;;;;5052909;28;20067;-61
2022/09/14 01:01:40;;;;;;;8.85;2.63;;;21.30;99.90;;;;;;5052156;28;20060;-62
2022/09/14 01:04:06;;;;;;;8.23;2.38;;;21.40;99.90;;;;;;5052622;28;20111;-61
2022/09/14 01:06:59;;;;;;;7.85;2.25;;;22.30;99.90;;;;;;5052218;28;20059;-61
2022/09/14 01:09:32;;;;;;;9.90;2.75;;;22.70;99.90;;;;;;5053096;28;20385;-61
2022/09/14 01:12:06;;;;;;;4.28;1.83;;;22.70;99.90;;;;;;5052474;28;20021;-61
2022/09/14 01:14:45;;;;;;;7.55;2.35;;;22.70;99.90;;;;;;5052276;28;20025;-61
2022/09/14 01:17:17;;;;;;;7.65;2.33;;;21.70;99.90;;;;;;5051983;28;20032;-61
2022/09/14 01:19:49;;;;;;;7.68;2.60;;;20.90;99.90;;;;;;5052111;28;20505;-61
2022/09/14 01:22:32;;;;;;;7.80;2.67;;;20.90;99.90;;;;;;5051854;28;20060;-61
2022/09/14 01:25:10;;;;;;;5.32;1.90;;;20.90;99.90;;;;;;5052185;28;20021;-61
2022/09/14 01:27:42;;;;;;;7.70;2.28;;;21.10;99.90;;;;;;5052176;28;20512;-61
2022/09/14 01:30:08;;;;;;;7.37;2.63;;;21.20;99.90;;;;;;5051717;28;20028;-61
2022/09/14 01:32:42;;;;;;;5.43;2.10;;;20.60;99.90;;;;;;5052500;28;20268;-61
2022/09/14 01:35:14;;;;;;;7.78;2.67;;;21.00;99.90;;;;;;5051925;28;20055;-61
2022/09/14 01:38:01;;;;;;;7.22;2.30;;;21.30;99.90;;;;;;5051957;28;20472;-61
2022/09/14 01:40:38;;;;;;;5.15;2.33;;;22.00;99.90;;;;;;5051807;28;20067;-61
2022/09/14 01:43:04;;;;;;;6.18;2.45;;;21.40;99.90;;;;;;5051861;28;20061;-61
2022/09/14 01:45:31;;;;;;;7.03;2.22;;;20.70;99.90;;;;;;5051950;28;20064;-61
2022/09/14 01:48:02;;;;;;;5.30;2.10;;;20.70;99.90;;;;;;5051779;28;20108;-60
2022/09/14 01:50:38;;;;;;;7.78;2.30;;;21.80;99.90;;;;;;5050467;28;20044;-61
2022/09/14 01:53:47;;;;;;;4.57;2.28;;;22.30;99.90;;;;;;5051727;28;20033;-61
2022/09/14 01:56:26;;;;;;;6.82;2.38;;;22.20;99.90;;;;;;5012842;28;20380;-60
2022/09/14 01:59:00;;;;;;;6.80;2.50;;;21.20;99.90;;;;;;5029305;28;20161;-61
2022/09/14 02:01:53;;;;;;;7.05;2.22;;;21.60;99.90;;;;;;5013373;28;20395;-60
2022/09/14 02:04:33;;;;;;;7.72;2.65;;;20.90;99.90;;;;;;5012585;28;20044;-60
2022/09/14 02:06:58;;;;;;;6.60;2.60;;;20.90;99.90;;;;;;5029943;28;20120;-61
2022/09/14 02:09:25;;;;;;;6.30;2.15;;;20.20;99.90;;;;;;5029444;28;20470;-61
2022/09/14 02:11:53;;;;;;;7.68;2.63;;;20.40;99.90;;;;;;5029391;28;20052;-60
2022/09/14 02:14:19;;;;;;;8.93;2.38;;;21.50;99.90;;;;;;5028910;28;20071;-60
2022/09/14 02:16:45;;;;;;;5.45;2.10;;;22.30;99.90;;;;;;5030892;28;20026;-60
2022/09/14 02:19:12;;;;;;;5.75;2.08;;;22.60;99.90;;;;;;5033483;28;20099;-61
2022/09/14 02:21:39;;;;;;;7.13;2.08;;;22.60;99.90;;;;;;5033608;28;20050;-60
2022/09/14 02:24:06;;;;;;;7.97;2.50;;;22.60;99.90;;;;;;5033286;28;20029;-61
2022/09/14 02:26:32;;;;;;;5.43;2.33;;;22.70;99.90;;;;;;5033475;28;20075;-61
2022/09/14 02:28:58;;;;;;;5.35;2.20;;;22.70;99.90;;;;;;5032716;28;20034;-60
2022/09/14 02:31:39;;;;;;;4.78;2.20;;;22.70;99.90;;;;;;5035354;28;20137;-60
2022/09/14 02:34:28;;;;;;;6.40;2.72;;;22.60;99.90;;;;;;5055254;28;20064;-60
2022/09/14 02:37:17;;;;;;;6.10;2.42;;;22.50;99.90;;;;;;5055254;28;20048;-61
2022/09/14 02:39:42;;;;;;;5.47;2.10;;;22.20;99.90;;;;;;5055124;28;20021;-61
2022/09/14 02:42:19;;;;;;;8.65;2.53;;;21.80;99.90;;;;;;5055121;28;20040;-60
2022/09/14 02:45:08;;;;;;;5.82;2.50;;;20.50;99.90;;;;;;5055243;28;20025;-60
2022/09/14 02:47:46;;;;;;;7.00;2.45;;;21.10;99.90;;;;;;5033143;28;20163;-60
2022/09/14 02:50:47;;;;;;;4.53;2.42;;;21.70;99.90;;;;;;5033416;28;20049;-60
2022/09/14 02:53:21;;;;;;;5.70;2.22;;;22.00;99.90;;;;;;5032723;28;20045;-61
2022/09/14 02:55:53;;;;;;;5.43;2.22;;;22.30;99.90;;;;;;5033316;28;20037;-61
2022/09/14 02:58:18;;;;;;;6.25;2.28;;;22.40;99.90;;;;;;5032339;28;20554;-60
2022/09/14 03:00:47;;;;;;;5.60;2.00;;;22.40;99.90;;;;;;5032712;28;20025;-61
2022/09/14 03:03:15;;;;;;;7.63;2.25;;;22.20;99.90;;;;;;5016536;28;20406;-60
2022/09/14 03:05:41;;;;;;;7.32;2.47;;;22.40;99.90;;;;;;5032502;28;20088;-61
2022/09/14 03:08:09;;;;;;;5.72;2.15;;;22.40;99.90;;;;;;5032691;28;20529;-61
2022/09/14 03:10:35;;;;;;;7.95;2.55;;;22.40;99.90;;;;;;5032456;28;20029;-60
2022/09/14 03:13:01;;;;;;;5.13;2.05;;;22.40;99.90;;;;;;5032517;28;20101;-61
2022/09/14 03:15:28;;;;;;;6.43;2.28;;;21.70;99.90;;;;;;5032488;28;20061;-61
2022/09/14 03:17:54;;;;;;;8.35;2.30;;;21.60;99.90;;;;;;5032416;28;20038;-60
2022/09/14 03:20:25;;;;;;;8.93;2.30;;;20.90;99.90;;;;;;5032230;28;20040;-61
2022/09/14 03:22:51;;;;;;;5.53;2.55;;;21.00;99.90;;;;;;5032308;28;20084;-60
2022/09/14 03:25:21;;;;;;;6.97;2.30;;;21.40;99.90;;;;;;5048896;28;20474;-60
2022/09/14 03:27:49;;;;;;;8.60;2.35;;;21.70;99.90;;;;;;5053765;28;20090;-61
2022/09/14 03:30:15;;;;;;;6.45;2.25;;;21.20;99.90;;;;;;5052968;28;20479;-61
2022/09/14 03:32:41;;;;;;;7.70;2.53;;;20.90;99.90;;;;;;5054344;28;20021;-61
2022/09/14 03:35:07;;;;;;;5.63;2.38;;;20.70;99.90;;;;;;5054080;28;20387;-60
2022/09/14 03:37:37;;;;;;;7.28;2.53;;;20.50;99.90;;;;;;5054544;28;20051;-60
2022/09/14 03:40:04;;;;;;;6.78;2.65;;;20.30;99.90;;;;;;5053792;28;20091;-61
2022/09/14 03:42:29;;;;;;;5.57;2.35;;;20.00;99.90;;;;;;5053071;28;20037;-60
2022/09/14 03:44:55;;;;;;;5.00;2.30;;;20.60;99.90;;;;;;5054437;28;20494;-60
2022/09/14 03:47:21;;;;;;;6.13;2.10;;;21.10;99.90;;;;;;5054060;28;20029;-61
2022/09/14 03:49:47;;;;;;;6.50;2.33;;;21.70;99.90;;;;;;5053938;28;20379;-61
2022/09/14 03:52:12;;;;;;;10.18;2.33;;;21.70;99.90;;;;;;5053909;28;20048;-60
2022/09/14 03:54:38;;;;;;;6.53;2.13;;;21.90;99.90;;;;;;5053785;28;20128;-60
2022/09/14 03:57:06;;;;;;;7.18;2.25;;;21.50;99.90;;;;;;5053915;28;20032;-61
2022/09/14 03:59:32;;;;;;;8.73;2.50;;;21.20;99.90;;;;;;5053800;28;20445;-61
2022/09/14 04:01:58;;;;;;;7.97;2.67;;;20.60;99.90;;;;;;5052488;28;20033;-60
2022/09/14 04:04:24;;;;;;;7.20;2.60;;;20.50;99.90;;;;;;5053972;28;20040;-60
2022/09/14 04:06:50;;;;;;;5.55;2.28;;;20.20;99.90;;;;;;5053593;28;20032;-61
2022/09/14 04:09:18;;;;;;;6.63;2.70;;;20.20;99.90;;;;;;5053268;28;20043;-61
2022/09/14 04:11:44;;;;;;;7.50;2.47;;;20.10;99.90;;;;;;5053811;28;20029;-61
2022/09/14 04:14:11;;;;;;;5.65;2.28;;;20.20;99.90;;;;;;5053373;28;20028;-60
2022/09/14 04:16:38;;;;;;;7.75;2.17;;;20.50;99.90;;;;;;5053500;28;20070;-60
2022/09/14 04:19:04;;;;;;;7.50;2.30;;;21.10;99.90;;;;;;5053415;28;20036;-60
2022/09/14 04:21:30;;;;;;;4.88;2.28;;;21.30;99.90;;;;;;5053558;28;20057;-61
2022/09/14 04:23:56;;;;;;;7.85;2.40;;;20.50;99.90;;;;;;5052741;28;20135;-60
2022/09/14 04:26:25;;;;;;;8.60;2.65;;;20.70;99.90;;;;;;5053141;28;20099;-61
2022/09/14 04:28:51;;;;;;;4.57;2.20;;;21.40;99.90;;;;;;5053293;28;20025;-61
2022/09/14 04:31:18;;;;;;;6.75;3.03;;;21.20;99.90;;;;;;5053150;28;20025;-60
2022/09/14 04:33:44;;;;;;;6.68;2.13;;;21.10;99.90;;;;;;5053492;28;20147;-60
2022/09/14 04:36:15;;;;;;;6.82;3.05;;;20.50;99.90;;;;;;5053058;28;20393;-60
2022/09/14 04:38:42;;;;;;;7.57;2.40;;;20.20;99.90;;;;;;5052725;28;20043;-60
2022/09/14 04:41:16;;;;;;;6.45;2.40;;;20.20;99.90;;;;;;5051660;28;20035;-60
2022/09/14 04:43:44;;;;;;;9.10;2.80;;;20.30;99.90;;;;;;5052944;28;20452;-60
2022/09/14 04:46:16;;;;;;;6.53;2.03;;;20.50;99.90;;;;;;5053260;28;20025;-61
2022/09/14 04:48:42;;;;;;;4.95;2.50;;;20.70;99.90;;;;;;5053065;28;20367;-60
2022/09/14 04:51:18;;;;;;;8.80;2.70;;;20.60;99.90;;;;;;5052756;28;20040;-61
2022/09/14 04:53:46;;;;;;;5.07;1.90;;;20.60;99.90;;;;;;5052186;28;20017;-61
2022/09/14 04:56:13;;;;;;;6.10;2.13;;;20.70;99.90;;;;;;5052585;28;20025;-60
2022/09/14 04:58:41;;;;;;;5.45;2.28;;;21.10;99.90;;;;;;5052956;28;20032;-61
2022/09/14 05:01:19;;;;;;;8.30;2.47;;;21.50;99.90;;;;;;5052633;28;20029;-60
2022/09/14 05:03:44;;;;;;;7.07;2.55;;;21.70;99.90;;;;;;5052483;28;20094;-61
2022/09/14 05:06:19;;;;;;;7.93;3.03;;;21.60;99.90;;;;;;5051200;28;20029;-60
2022/09/14 05:08:45;;;;;;;7.78;2.60;;;20.70;99.90;;;;;;5052108;28;20056;-60
2022/09/14 05:11:17;;;;;;;5.35;2.60;;;20.70;99.90;;;;;;5052408;28;20040;-60
2022/09/14 05:13:43;;;;;;;12.88;3.20;;;21.10;99.90;;;;;;5052233;28;20029;-61
2022/09/14 05:16:23;;;;;;;7.45;2.53;;;20.80;99.90;;;;;;5052448;28;20504;-61
2022/09/14 05:18:49;;;;;;;7.82;2.88;;;21.40;99.90;;;;;;5052265;28;20392;-60
2022/09/14 05:21:19;;;;;;;8.18;2.80;;;21.70;99.90;;;;;;5052443;28;20406;-61
2022/09/14 05:23:45;;;;;;;7.22;2.38;;;21.30;99.90;;;;;;5051813;28;20120;-61
2022/09/14 05:26:12;;;;;;;7.80;2.55;;;21.10;99.90;;;;;;5052218;28;20025;-60
2022/09/14 05:28:38;;;;;;;8.18;2.90;;;20.30;99.90;;;;;;5052147;28;20017;-60
2022/09/14 05:31:05;;;;;;;7.20;2.42;;;20.30;99.90;;;;;;5052092;28;20386;-60
2022/09/14 05:33:32;;;;;;;7.93;2.60;;;20.80;99.90;;;;;;5052095;28;20115;-60
2022/09/14 05:36:03;;;;;;;6.63;2.47;;;21.10;99.90;;;;;;5051754;28;20028;-60
2022/09/14 05:38:30;;;;;;;5.93;2.60;;;21.10;99.90;;;;;;5051853;28;20079;-61
2022/09/14 05:40:56;;;;;;;5.43;2.40;;;21.20;99.90;;;;;;5051818;28;20036;-61
2022/09/14 05:43:22;;;;;;;6.15;2.42;;;21.40;99.90;;;;;;5052051;28;20412;-60
2022/09/14 05:45:48;;;;;;;8.75;2.78;;;21.70;99.90;;;;;;5051812;28;20035;-59
2022/09/14 05:48:14;;;;;;;8.65;2.60;;;21.60;99.90;;;;;;5051790;28;20032;-61
2022/09/14 05:50:40;;;;;;;6.93;2.58;;;21.70;99.90;;;;;;5052049;28;20424;-59
2022/09/14 05:53:05;;;;;;;9.00;2.25;;;21.20;99.90;;;;;;5051222;28;20025;-61
2022/09/14 05:55:31;;;;;;;6.15;2.50;;;21.60;99.90;;;;;;5051270;28;20132;-60
2022/09/14 05:57:57;;;;;;;7.55;2.88;;;21.00;99.90;;;;;;5050879;28;20082;-61
2022/09/14 06:00:23;;;;;;;7.85;2.45;;;20.20;99.90;;;;;;5051437;28;20029;-59
2022/09/14 06:02:51;;;;;;;5.97;2.60;;;20.70;99.90;;;;;;5034082;28;20033;-60
2022/09/14 06:05:18;;;;;;;6.63;2.67;;;21.50;99.90;;;;;;5051340;28;20017;-59
2022/09/14 06:07:44;;;;;;;8.82;2.90;;;21.30;99.90;;;;;;5051703;28;20033;-60
2022/09/14 06:10:11;;;;;;;6.82;2.80;;;20.60;99.90;;;;;;5051717;28;20036;-60
2022/09/14 06:12:37;;;;;;;4.72;2.30;;;20.90;99.90;;;;;;5051436;28;20029;-60
2022/09/14 06:15:03;;;;;;;6.75;2.53;;;21.50;99.90;;;;;;5051451;28;20083;-60
2022/09/14 06:17:30;;;;;;;7.38;2.42;;;21.30;99.90;;;;;;5051538;28;20078;-60
2022/09/14 06:19:56;;;;;;;8.00;3.00;;;21.40;99.90;;;;;;5051434;28;20044;-60
2022/09/14 06:22:22;;;;;;;5.72;2.53;;;21.30;99.90;;;;;;5050105;28;20456;-60
2022/09/14 06:24:47;;;;;;;9.38;2.75;;;22.30;99.90;;;;;;5049979;28;20079;-61
2022/09/14 06:27:14;;;;;;;8.18;2.58;;;23.30;99.90;;;;;;5051644;28;20031;-61
2022/09/14 06:29:40;;;;;;;6.25;2.45;;;24.10;99.90;;;;;;5051491;28;20120;-61
2022/09/14 06:32:05;;;;;;;10.93;2.65;;;24.60;99.90;;;;;;5051535;28;20104;-61
2022/09/14 06:34:31;;;;;;;9.02;2.70;;;25.30;99.90;;;;;;5051329;28;20040;-61
2022/09/14 06:36:57;;;;;;;6.53;2.72;;;25.00;99.90;;;;;;5051369;28;20096;-61
2022/09/14 06:39:23;;;;;;;7.90;2.50;;;25.10;99.90;;;;;;5049987;28;20083;-61
2022/09/14 06:41:50;;;;;;;7.55;2.72;;;26.50;99.90;;;;;;5051265;28;20037;-61
2022/09/14 06:44:16;;;;;;;12.55;2.42;;;27.10;99.90;;;;;;5051724;28;20036;-61
2022/09/14 06:46:43;;;;;;;6.93;2.65;;;26.00;99.90;;;;;;5051389;28;20032;-61
2022/09/14 06:49:19;;;;;;;7.50;3.00;;;25.80;99.90;;;;;;5050709;28;20048;-61
2022/09/14 06:51:46;;;;;;;6.10;2.83;;;26.30;99.90;;;;;;5051279;28;20470;-61
2022/09/14 06:54:14;;;;;;;7.82;2.78;;;25.00;99.90;;;;;;5049794;28;20025;-60
2022/09/14 06:56:41;;;;;;;7.13;2.70;;;26.80;99.90;;;;;;5051106;28;20554;-59
2022/09/14 06:59:09;;;;;;;5.50;2.50;;;27.50;99.90;;;;;;5050661;28;20033;-61
2022/09/14 07:01:35;;;;;;;7.28;2.67;;;28.70;99.90;;;;;;5050289;28;20505;-61
2022/09/14 07:04:01;;;;;;;8.50;2.90;;;29.40;99.90;;;;;;5052845;28;20056;-60
2022/09/14 07:06:30;;;;;;;5.65;2.65;;;29.30;99.80;;;;;;5054020;28;20029;-61
2022/09/14 07:08:56;;;;;;;6.95;2.40;;;29.80;99.00;;;;;;5054037;28;20025;-61
2022/09/14 07:11:28;;;;;;;8.23;2.65;;;30.30;98.30;;;;;;5053048;28;20029;-61
2022/09/14 07:13:57;;;;;;;4.80;2.50;;;30.80;97.30;;;;;;5054486;28;20032;-60
2022/09/14 07:16:24;;;;;;;6.15;2.35;;;31.20;96.20;;;;;;5054398;28;20037;-61
2022/09/14 07:18:58;;;;;;;6.65;2.33;;;30.10;96.80;;;;;;5053775;28;20389;-61
2022/09/14 07:21:25;;;;;;;8.40;2.67;;;31.20;96.40;;;;;;5054388;28;20081;-60
2022/09/14 07:23:51;;;;;;;6.57;2.35;;;31.40;96.10;;;;;;5054315;28;20021;-61
2022/09/14 07:26:18;;;;;;;6.25;3.20;;;31.90;95.10;;;;;;5054216;28;20091;-61
2022/09/14 07:28:46;;;;;;;20.77;2.78;;;32.90;94.00;;;;;;5054816;28;20025;-61
2022/09/14 07:31:20;;;;;;;10.15;2.88;;;32.00;93.60;;;;;;5054203;28;20064;-61
2022/09/14 07:33:46;;;;;;;21.33;3.00;;;30.00;96.10;;;;;;5053839;28;20045;-61
2022/09/14 07:36:12;;;;;;;16.00;2.90;;;29.60;96.20;;;;;;5054584;28;20056;-61
2022/09/14 07:38:38;;;;;;;49.55;7.88;;;28.10;98.00;;;;;;5054153;28;20017;-62
2022/09/14 07:41:05;;;;;;;73.25;13.00;;;27.30;99.60;;;;;;5053927;28;20051;-61
2022/09/14 07:43:31;;;;;;;37.17;7.75;;;26.50;99.90;;;;;;5053641;28;20033;-60
2022/09/14 07:45:56;;;;;;;38.03;7.35;;;26.60;99.90;;;;;;5054163;28;20060;-59
2022/09/14 07:48:22;;;;;;;34.40;8.13;;;26.70;99.90;;;;;;5053049;28;20032;-60
2022/09/14 07:51:02;;;;;;;24.10;5.38;;;27.30;99.90;;;;;;5053587;28;20024;-60
2022/09/14 07:53:27;;;;;;;10.93;3.42;;;27.10;99.90;;;;;;5053826;28;20033;-61
2022/09/14 07:55:53;;;;;;;19.65;4.60;;;29.00;99.40;;;;;;5053680;28;20047;-61
2022/09/14 07:58:19;;;;;;;14.77;3.70;;;30.00;98.20;;;;;;5053692;28;20492;-62
2022/09/14 08:00:44;;;;;;;14.45;3.80;;;30.10;97.20;;;;;;5054033;28;20021;-62
2022/09/14 08:03:10;;;;;;;11.95;3.63;;;29.00;98.30;;;;;;5053169;28;20096;-61
2022/09/14 08:05:36;;;;;;;8.30;3.05;;;28.70;99.10;;;;;;5053606;28;20504;-61
2022/09/14 08:08:02;;;;;;;8.98;3.05;;;28.30;99.10;;;;;;5053617;28;20043;-61
2022/09/14 08:10:28;;;;;;;8.27;2.97;;;28.60;98.60;;;;;;5035858;28;20401;-62
2022/09/14 08:12:55;;;;;;;11.48;3.95;;;28.00;99.50;;;;;;5053882;28;20039;-62
2022/09/14 08:15:22;;;;;;;7.43;2.88;;;27.80;99.60;;;;;;5051980;28;20469;-61
2022/09/14 08:17:48;;;;;;;8.88;2.78;;;27.20;99.90;;;;;;5052763;28;20116;-59
2022/09/14 08:20:15;;;;;;;10.57;2.97;;;28.60;99.20;;;;;;5053015;28;20565;-60
2022/09/14 08:22:42;;;;;;;9.45;2.85;;;28.90;98.70;;;;;;5053109;28;20037;-59
2022/09/14 08:25:09;;;;;;;10.10;3.10;;;28.50;98.90;;;;;;5053104;28;20108;-59
2022/09/14 08:27:35;;;;;;;8.57;3.05;;;27.30;99.90;;;;;;5053106;28;20421;-59
2022/09/14 08:30:00;;;;;;;10.52;2.92;;;28.20;99.90;;;;;;5053020;28;20020;-59
2022/09/14 08:32:26;;;;;;;10.98;3.13;;;29.10;99.00;;;;;;5051592;28;20025;-60
2022/09/14 08:34:52;;;;;;;9.95;3.00;;;30.60;96.40;;;;;;5052118;28;20459;-62
2022/09/14 08:37:18;;;;;;;8.57;2.63;;;32.10;95.80;;;;;;5052429;28;20029;-62
2022/09/14 08:39:44;;;;;;;6.15;2.60;;;31.20;95.60;;;;;;5053106;28;20021;-62
2022/09/14 08:42:16;;;;;;;7.57;2.75;;;29.90;96.80;;;;;;5052799;28;20061;-62
2022/09/14 08:44:56;;;;;;;8.48;2.80;;;28.60;98.40;;;;;;5051446;28;20024;-62
2022/09/14 08:47:37;;;;;;;7.18;2.35;;;29.70;97.80;;;;;;5052072;28;20386;-60
2022/09/14 08:50:06;;;;;;;5.50;2.40;;;30.10;96.30;;;;;;5052481;28;20021;-62
2022/09/14 08:52:52;;;;;;;6.20;2.30;;;29.50;97.10;;;;;;5052259;28;20025;-63
2022/09/14 08:55:47;;;;;;;6.00;1.90;;;29.80;97.00;;;;;;5052687;28;20044;-62
2022/09/14 08:58:32;;;;;;;4.70;2.17;;;30.80;96.00;;;;;;5052411;28;20021;-62
2022/09/14 09:01:34;;;;;;;6.93;2.42;;;34.30;92.40;;;;;;5052069;28;20025;-60
2022/09/14 09:04:12;;;;;;;10.88;2.35;;;35.30;91.90;;;;;;5052529;28;20040;-61
2022/09/14 09:06:46;;;;;;;6.53;2.22;;;36.90;88.40;;;;;;5052590;28;20025;-61
2022/09/14 09:09:17;;;;;;;10.48;2.40;;;38.90;85.00;;;;;;5052427;28;20029;-60
2022/09/14 09:11:47;;;;;;;9.73;2.45;;;36.50;84.10;;;;;;5052481;28;20057;-59
2022/09/14 09:14:30;;;;;;;5.43;2.17;;;35.90;85.50;;;;;;5051779;28;20028;-60
2022/09/14 09:16:59;;;;;;;6.53;2.22;;;35.30;85.20;;;;;;5052008;28;20119;-59
2022/09/14 09:19:35;;;;;;;4.10;1.58;;;35.10;86.60;;;;;;5052568;28;20377;-60
2022/09/14 09:22:06;;;;;;;4.13;1.65;;;32.40;87.70;;;;;;5051066;28;20049;-60
2022/09/14 09:24:40;;;;;;;4.05;1.95;;;32.90;89.00;;;;;;5051787;28;20021;-60
2022/09/14 09:27:14;;;;;;;7.40;1.90;;;35.80;86.00;;;;;;5051305;28;20056;-61
2022/09/14 09:29:42;;;;;;;3.25;1.40;;;36.70;81.00;;;;;;5052057;28;20024;-61
2022/09/14 09:32:13;;;;;;;4.07;1.67;;;35.60;80.90;;;;;;5052097;28;20021;-61
2022/09/14 09:34:38;;;;;;;5.03;1.75;;;36.00;80.60;;;;;;5052110;28;20047;-61
2022/09/14 09:37:04;;;;;;;4.78;1.80;;;37.20;80.40;;;;;;5051980;28;20420;-61
2022/09/14 09:39:32;;;;;;;4.28;1.52;;;36.70;78.60;;;;;;5052296;28;20039;-61
2022/09/14 09:42:04;;;;;;;4.00;1.60;;;37.90;78.20;;;;;;5051831;28;20087;-61
2022/09/14 09:44:58;;;;;;;2.88;1.30;;;39.00;76.20;;;;;;5051600;28;20495;-60
2022/09/14 09:47:39;;;;;;;3.15;1.38;;;39.00;74.00;;;;;;5051871;28;20518;-61
2022/09/14 09:50:19;;;;;;;2.55;1.50;;;39.00;73.90;;;;;;5051959;28;20032;-60
2022/09/14 09:52:57;;;;;;;4.22;1.33;;;37.70;73.10;;;;;;5051897;28;20025;-61
2022/09/14 09:55:27;;;;;;;2.85;1.60;;;39.50;71.30;;;;;;5051772;28;20504;-60
2022/09/14 09:57:53;;;;;;;4.32;1.60;;;38.30;71.50;;;;;;5051844;28;20028;-60
2022/09/14 10:00:25;;;;;;;3.70;1.50;;;38.60;71.70;;;;;;5051653;28;20051;-59
2022/09/14 10:02:53;;;;;;;2.72;1.40;;;37.00;72.80;;;;;;5051535;28;20161;-61
2022/09/14 10:05:36;;;;;;;3.90;1.65;;;34.50;74.90;;;;;;5051721;28;20473;-61
2022/09/14 10:08:04;;;;;;;3.35;1.80;;;34.50;76.20;;;;;;5051896;28;20024;-61
2022/09/14 10:10:38;;;;;;;4.30;1.80;;;35.40;73.90;;;;;;5051631;28;20460;-61
2022/09/14 10:13:13;;;;;;;5.90;1.70;;;35.90;74.00;;;;;;5051435;28;20045;-60
2022/09/14 10:15:39;;;;;;;3.28;1.60;;;35.70;73.20;;;;;;5051634;28;20028;-60
2022/09/14 10:18:11;;;;;;;3.78;1.30;;;34.60;72.60;;;;;;5051612;28;20033;-60
2022/09/14 10:20:58;;;;;;;4.28;1.40;;;34.10;73.70;;;;;;5051523;28;20063;-59
2022/09/14 10:23:27;;;;;;;3.25;1.50;;;34.50;75.70;;;;;;5047448;28;20052;-61
2022/09/14 10:26:14;;;;;;;3.75;1.73;;;35.20;74.90;;;;;;5051768;28;20053;-60
2022/09/14 10:28:44;;;;;;;4.57;1.50;;;35.70;75.00;;;;;;5051867;28;20083;-60
2022/09/14 10:31:19;;;;;;;3.28;1.30;;;34.10;73.90;;;;;;5051415;28;20029;-60
2022/09/14 10:33:52;;;;;;;5.75;1.88;;;33.90;75.70;;;;;;5051393;28;20063;-60
2022/09/14 10:36:40;;;;;;;3.80;1.42;;;33.00;77.00;;;;;;5051266;28;20488;-60
2022/09/14 10:39:30;;;;;;;3.70;1.73;;;34.50;76.20;;;;;;5054813;28;20505;-61
2022/09/14 10:42:25;;;;;;;5.45;1.40;;;36.40;75.00;;;;;;5054723;28;20065;-60
2022/09/14 10:45:14;;;;;;;2.00;1.17;;;35.10;75.70;;;;;;5055222;28;20043;-60
2022/09/14 10:47:48;;;;;;;3.45;1.52;;;35.20;73.60;;;;;;5055377;28;20548;-60
2022/09/14 10:50:34;;;;;;;3.65;1.30;;;34.30;76.30;;;;;;5055482;28;20107;-60
2022/09/14 10:53:12;;;;;;;4.15;1.50;;;35.20;74.50;;;;;;5054965;28;20025;-60
2022/09/14 10:55:59;;;;;;;4.95;1.45;;;35.10;74.10;;;;;;5054098;28;20060;-60
2022/09/14 10:58:46;;;;;;;3.08;1.45;;;35.00;74.50;;;;;;5055329;28;20104;-61
2022/09/14 11:01:18;;;;;;;3.78;1.45;;;34.90;74.20;;;;;;5054872;28;20032;-61
2022/09/14 11:04:13;;;;;;;4.15;1.67;;;33.30;76.60;;;;;;5055075;28;20486;-61
2022/09/14 11:06:41;;;;;;;3.13;1.48;;;32.80;77.20;;;;;;5054830;28;20028;-61
2022/09/14 11:09:16;;;;;;;3.20;1.35;;;32.10;76.10;;;;;;5054592;28;20029;-62
2022/09/14 11:11:48;;;;;;;3.10;1.67;;;32.50;77.10;;;;;;5054437;28;20025;-60
2022/09/14 11:14:29;;;;;;;5.22;1.50;;;32.00;77.80;;;;;;5054523;28;20727;-61
2022/09/14 11:16:54;;;;;;;4.15;1.67;;;31.20;78.70;;;;;;5054987;28;20033;-59
2022/09/14 11:19:26;;;;;;;2.90;1.55;;;31.20;78.20;;;;;;5054587;28;20501;-60
2022/09/14 11:22:10;;;;;;;4.35;1.70;;;31.20;78.80;;;;;;5054278;28;20425;-61
2022/09/14 11:24:56;;;;;;;3.00;1.45;;;31.50;78.70;;;;;;5054003;28;20029;-62
2022/09/14 11:27:34;;;;;;;2.85;1.60;;;32.30;77.10;;;;;;5054410;28;20040;-61
2022/09/14 11:30:18;;;;;;;3.67;1.70;;;31.50;78.00;;;;;;5054405;28;20111;-62
2022/09/14 11:33:12;;;;;;;3.55;1.48;;;31.30;78.30;;;;;;5054293;28;20025;-61
2022/09/14 11:35:44;;;;;;;;;;;31.40;78.50;;;;;;5054703;28;20029;-62
2022/09/14 11:38:19;;;;;;;4.03;1.40;;;31.40;78.50;;;;;;5053974;28;19905;-61
2022/09/14 11:40:57;;;;;;;3.38;1.67;;;31.10;79.50;;;;;;5053666;28;20036;-61
2022/09/14 11:43:44;;;;;;;4.80;1.67;;;31.10;79.80;;;;;;5053973;28;20072;-61
2022/09/14 11:46:14;;;;;;;4.90;1.73;;;30.30;80.00;;;;;;5054518;28;20554;-62
2022/09/14 11:48:47;;;;;;;5.35;1.60;;;30.60;80.20;;;;;;5053679;28;20033;-61
2022/09/14 11:51:45;;;;;;;3.92;1.45;;;30.60;79.30;;;;;;5054244;28;20079;-62
2022/09/14 11:54:18;;;;;;;3.85;1.50;;;30.50;80.20;;;;;;5048485;28;20029;-61
2022/09/14 11:56:50;;;;;;;3.25;1.60;;;30.70;79.10;;;;;;5054005;28;20029;-61
2022/09/14 11:59:36;;;;;;;3.63;1.58;;;30.70;80.80;;;;;;5054417;28;20116;-62
2022/09/14 12:02:23;;;;;;;3.55;1.65;;;31.00;79.10;;;;;;5053764;28;20025;-61
2022/09/14 12:05:04;;;;;;;1.83;1.30;;;30.90;81.00;;;;;;5053801;28;20036;-61
2022/09/14 12:07:39;;;;;;;3.17;1.52;;;31.20;80.40;;;;;;5053665;28;20393;-62
2022/09/14 12:10:16;;;;;;;3.47;1.50;;;31.30;79.10;;;;;;5053752;28;20021;-61
2022/09/14 12:13:19;;;;;;;4.57;1.50;;;31.30;78.70;;;;;;5053584;28;20485;-62
2022/09/14 12:15:45;;;;;;;4.53;1.60;;;31.10;79.10;;;;;;5031238;28;20029;-61
2022/09/14 12:18:12;;;;;;;2.97;1.65;;;31.00;79.70;;;;;;5031341;28;20041;-61
2022/09/14 12:20:44;;;;;;;2.60;1.50;;;30.60;80.50;;;;;;5031081;28;20054;-62
2022/09/14 12:23:28;;;;;;;3.55;1.67;;;30.50;81.20;;;;;;5031133;28;20172;-61
2022/09/14 12:26:23;;;;;;;3.63;1.38;;;31.00;80.80;;;;;;5031191;28;20512;-61
2022/09/14 12:28:55;;;;;;;3.17;1.30;;;30.70;79.80;;;;;;5031136;28;20029;-61
2022/09/14 12:31:52;;;;;;;4.80;1.70;;;29.90;80.30;;;;;;5030971;28;20092;-62
2022/09/14 12:34:19;;;;;;;5.55;1.73;;;29.50;82.50;;;;;;5022228;28;20079;-61
2022/09/14 12:36:45;;;;;;;4.88;1.52;;;29.10;82.50;;;;;;5030923;28;20076;-62
2022/09/14 12:39:24;;;;;;;4.63;1.58;;;29.00;84.60;;;;;;5031041;28;20069;-61
2022/09/14 12:41:50;;;;;;;5.18;1.98;;;29.00;82.80;;;;;;5030479;28;20111;-60
2022/09/14 12:44:37;;;;;;;5.20;1.50;;;29.10;82.20;;;;;;5030762;28;20480;-60
2022/09/14 12:47:29;;;;;;;3.08;1.40;;;28.80;83.00;;;;;;5030713;28;20048;-61
2022/09/14 12:49:57;;;;;;;2.70;1.50;;;29.30;82.40;;;;;;5029558;28;20120;-60
2022/09/14 12:52:32;;;;;;;3.60;1.55;;;29.60;82.20;;;;;;5051160;28;20051;-61
2022/09/14 12:55:36;;;;;;;3.20;1.50;;;29.90;81.20;;;;;;5052496;28;20489;-61
2022/09/14 12:58:30;;;;;;;3.67;1.70;;;30.00;80.70;;;;;;5052588;28;20029;-60
2022/09/14 13:01:29;;;;;;;4.38;1.63;;;30.00;80.00;;;;;;5052088;28;20051;-62
2022/09/14 13:03:57;;;;;;;4.88;1.45;;;29.80;80.90;;;;;;5030427;28;20038;-60
2022/09/14 13:06:25;;;;;;;3.85;1.77;;;29.50;81.40;;;;;;5029925;28;20030;-61
2022/09/14 13:08:57;;;;;;;2.95;1.48;;;29.30;81.60;;;;;;5014403;28;20041;-61
2022/09/14 13:11:29;;;;;;;4.80;2.00;;;29.20;81.00;;;;;;5030348;28;20039;-61